createdAt,value
2017-12-13T00:02:22.422Z,93.40
2017-12-13T00:04:51.529Z,93.60
2017-12-13T00:07:19.662Z,94.00
2017-12-13T00:09:47.802Z,93.90
2017-12-13T00:12:15.954Z,94.10
2017-12-13T00:14:44.093Z,94.40
2017-12-13T00:17:13.017Z,94.50
2017-12-13T00:19:41.162Z,94.50
2017-12-13T00:22:09.304Z,94.20
2017-12-13T00:24:37.438Z,94.70
2017-12-13T00:27:05.594Z,94.30
2017-12-13T00:29:33.734Z,94.50
2017-12-13T00:32:03.401Z,94.60
2017-12-13T00:34:31.537Z,94.60
2017-12-13T00:37:00.453Z,94.90
2017-12-13T00:39:28.597Z,94.90
2017-12-13T00:41:56.756Z,95.00
2017-12-13T00:44:31.664Z,95.10
2017-12-13T00:47:00.580Z,95.00
2017-12-13T00:49:28.741Z,94.90
2017-12-13T00:51:57.648Z,95.10
2017-12-13T00:54:26.564Z,94.90
2017-12-13T00:56:54.693Z,94.90
2017-12-13T00:59:24.268Z,94.20
2017-12-13T01:01:53.162Z,93.20
2017-12-13T01:04:22.101Z,92.90
2017-12-13T01:06:50.977Z,92.40
2017-12-13T01:09:20.705Z,91.80
2017-12-13T01:11:48.829Z,91.70
2017-12-13T01:14:16.974Z,91.70
2017-12-13T01:16:45.953Z,91.70
2017-12-13T01:19:14.097Z,91.30
2017-12-13T01:21:43.152Z,91.00
2017-12-13T01:24:11.299Z,91.10
2017-12-13T01:26:39.449Z,91.20
2017-12-13T01:29:09.356Z,92.20
2017-12-13T01:31:38.206Z,92.20
2017-12-13T01:34:06.360Z,91.70
2017-12-13T01:36:36.102Z,92.10
2017-12-13T01:39:04.255Z,92.10
2017-12-13T01:41:33.141Z,92.30
2017-12-13T01:44:01.302Z,92.30
2017-12-13T01:46:29.454Z,91.70
2017-12-13T01:48:57.577Z,92.40
2017-12-13T01:51:26.496Z,91.60
2017-12-13T01:53:55.813Z,91.60
2017-12-13T01:56:24.520Z,91.40
2017-12-13T01:58:53.389Z,91.00
2017-12-13T02:01:21.543Z,91.00
2017-12-13T02:03:49.668Z,90.90
2017-12-13T02:06:18.804Z,90.80
2017-12-13T02:08:46.944Z,90.80
2017-12-13T02:11:15.089Z,91.00
2017-12-13T02:13:44.933Z,90.80
2017-12-13T02:16:13.939Z,90.70
2017-12-13T02:18:42.833Z,90.40
2017-12-13T02:21:11.744Z,90.60
2017-12-13T02:23:40.640Z,91.70
2017-12-13T02:26:09.543Z,91.20
2017-12-13T02:28:38.441Z,91.00
2017-12-13T02:31:07.352Z,91.10
2017-12-13T02:33:36.245Z,90.70
2017-12-13T02:36:05.177Z,90.50
2017-12-13T02:38:34.138Z,90.50
2017-12-13T02:41:05.586Z,90.00
2017-12-13T02:43:33.726Z,90.00
2017-12-13T02:46:01.873Z,89.50
2017-12-13T02:48:30.032Z,89.50
2017-12-13T02:50:58.140Z,89.80
2017-12-13T02:53:26.312Z,89.70
2017-12-13T02:55:54.424Z,89.20
2017-12-13T02:58:22.561Z,89.60
2017-12-13T03:00:50.719Z,89.50
2017-12-13T03:03:19.604Z,88.40
2017-12-13T03:05:47.740Z,88.30
2017-12-13T03:08:15.891Z,89.00
2017-12-13T03:10:44.786Z,90.30
2017-12-13T03:13:13.685Z,90.80
2017-12-13T03:15:42.609Z,91.00
2017-12-13T03:18:11.518Z,91.40
2017-12-13T03:20:39.645Z,91.40
2017-12-13T03:23:07.789Z,91.40
2017-12-13T03:25:35.915Z,92.10
2017-12-13T03:28:04.076Z,91.80
2017-12-13T03:30:33.374Z,92.60
2017-12-13T03:33:01.517Z,92.90
2017-12-13T03:35:29.659Z,92.60
2017-12-13T03:37:57.786Z,93.00
2017-12-13T03:40:26.806Z,92.90
2017-12-13T03:42:55.537Z,92.70
2017-12-13T03:45:24.421Z,93.10
2017-12-13T03:47:53.317Z,92.50
2017-12-13T03:50:22.919Z,92.40
2017-12-13T03:52:51.687Z,92.40
2017-12-13T03:55:20.677Z,92.70
2017-12-13T03:57:49.705Z,92.70
2017-12-13T04:00:17.861Z,93.00
2017-12-13T04:02:46.000Z,92.80
2017-12-13T04:05:14.149Z,92.70
2017-12-13T04:07:43.990Z,92.60
2017-12-13T04:10:12.928Z,93.10
2017-12-13T04:12:41.060Z,93.00
2017-12-13T04:15:09.208Z,93.10
2017-12-13T04:17:37.336Z,92.90
2017-12-13T04:20:06.835Z,92.60
2017-12-13T04:22:34.965Z,91.90
2017-12-13T04:25:04.411Z,91.20
2017-12-13T04:27:32.548Z,91.20
2017-12-13T04:30:00.689Z,91.50
2017-12-13T04:32:29.601Z,91.00
2017-12-13T04:34:58.504Z,91.60
2017-12-13T04:37:27.416Z,91.70
2017-12-13T04:39:55.542Z,91.70
2017-12-13T04:42:23.700Z,91.80
2017-12-13T04:44:51.818Z,91.70
2017-12-13T04:47:19.978Z,90.70
2017-12-13T04:49:48.825Z,91.10
2017-12-13T04:52:16.962Z,91.10
2017-12-13T04:54:45.090Z,90.70
2017-12-13T04:57:13.277Z,91.00
2017-12-13T04:59:42.757Z,91.50
2017-12-13T05:02:11.801Z,91.30
2017-12-13T05:04:39.950Z,90.50
2017-12-13T05:07:08.095Z,89.40
2017-12-13T05:09:36.229Z,89.90
2017-12-13T05:12:04.623Z,88.60
2017-12-13T05:14:32.758Z,87.60
2017-12-13T05:17:02.520Z,85.00
2017-12-13T05:19:30.644Z,84.90
2017-12-13T05:21:58.796Z,87.10
2017-12-13T05:24:27.709Z,84.80
2017-12-13T05:26:55.849Z,86.20
2017-12-13T05:29:26.010Z,86.20
2017-12-13T05:31:54.881Z,85.70
2017-12-13T05:34:23.798Z,87.90
2017-12-13T05:36:52.700Z,89.10
2017-12-13T05:39:21.637Z,89.80
2017-12-13T05:41:49.764Z,89.80
2017-12-13T05:44:17.941Z,90.10
2017-12-13T05:46:46.058Z,89.90
2017-12-13T05:49:14.991Z,90.30
2017-12-13T05:51:43.103Z,90.30
2017-12-13T05:54:11.236Z,90.70
2017-12-13T05:56:40.154Z,91.10
2017-12-13T05:59:08.283Z,91.10
2017-12-13T06:01:37.004Z,91.00
2017-12-13T06:04:06.309Z,90.80
2017-12-13T06:06:34.473Z,90.60
2017-12-13T06:09:03.201Z,91.30
2017-12-13T06:11:31.337Z,90.70
2017-12-13T06:13:59.466Z,90.90
2017-12-13T06:16:27.608Z,91.20
2017-12-13T06:18:55.791Z,90.90
2017-12-13T06:21:23.929Z,91.00
2017-12-13T06:23:52.072Z,91.50
2017-12-13T06:26:21.045Z,91.50
2017-12-13T06:28:49.196Z,91.70
2017-12-13T06:31:18.472Z,91.60
2017-12-13T06:33:46.609Z,91.20
2017-12-13T06:36:16.900Z,92.00
2017-12-13T06:38:45.037Z,92.30
2017-12-13T06:41:13.929Z,91.20
2017-12-13T06:43:42.096Z,91.10
2017-12-13T06:46:10.228Z,91.30
2017-12-13T06:48:39.156Z,91.40
2017-12-13T06:51:07.273Z,91.40
2017-12-13T06:53:36.290Z,91.40
2017-12-13T06:56:05.037Z,91.60
2017-12-13T06:58:34.403Z,91.00
2017-12-13T07:01:02.562Z,91.20
2017-12-13T07:03:30.670Z,90.50
2017-12-13T07:05:58.908Z,90.60
2017-12-13T07:08:27.805Z,91.70
2017-12-13T07:10:57.635Z,91.00
2017-12-13T07:13:25.757Z,91.00
2017-12-13T07:15:53.897Z,91.30
2017-12-13T07:18:22.801Z,91.40
2017-12-13T07:20:51.704Z,91.10
2017-12-13T07:23:20.653Z,90.70
2017-12-13T07:25:49.668Z,90.60
2017-12-13T07:28:17.833Z,91.50
2017-12-13T07:30:45.989Z,91.50
2017-12-13T07:33:14.133Z,90.80
2017-12-13T07:35:42.281Z,91.60
2017-12-13T07:38:10.443Z,91.00
2017-12-13T07:40:39.350Z,90.10
2017-12-13T07:43:08.261Z,90.70
2017-12-13T07:45:36.405Z,90.70
2017-12-13T07:48:06.917Z,90.20
2017-12-13T07:50:35.052Z,90.20
2017-12-13T07:53:03.986Z,90.20
2017-12-13T07:55:32.154Z,90.20
2017-12-13T07:58:01.072Z,89.20
2017-12-13T08:00:30.551Z,89.20
2017-12-13T08:02:59.950Z,88.20
2017-12-13T08:05:28.074Z,89.00
2017-12-13T08:07:56.988Z,85.70
2017-12-13T08:10:25.890Z,84.90
2017-12-13T08:12:54.801Z,84.70
2017-12-13T08:15:23.414Z,84.70
2017-12-13T08:17:51.578Z,84.60
2017-12-13T08:20:21.641Z,86.70
2017-12-13T08:22:50.713Z,86.70
2017-12-13T08:25:20.198Z,86.20
2017-12-13T08:27:48.325Z,86.20
2017-12-13T08:30:16.468Z,85.50
2017-12-13T08:32:46.748Z,85.90
2017-12-13T08:35:15.644Z,87.70
2017-12-13T08:37:45.301Z,86.90
2017-12-13T08:40:13.487Z,86.80
2017-12-13T08:42:42.197Z,86.60
2017-12-13T08:45:10.912Z,87.00
2017-12-13T08:47:39.079Z,88.60
2017-12-13T08:50:07.993Z,88.90
2017-12-13T08:52:36.108Z,88.30
2017-12-13T08:55:05.032Z,87.00
2017-12-13T08:57:33.552Z,86.90
2017-12-13T09:00:01.670Z,85.30
2017-12-13T09:02:31.132Z,84.60
2017-12-13T09:05:00.115Z,83.90
2017-12-13T09:07:28.285Z,85.80
2017-12-13T09:09:56.452Z,86.00
2017-12-13T09:12:27.343Z,86.20
2017-12-13T09:14:57.174Z,87.40
2017-12-13T09:17:26.102Z,86.60
2017-12-13T09:19:54.308Z,86.50
2017-12-13T09:22:22.457Z,86.80
2017-12-13T09:24:51.356Z,86.20
2017-12-13T09:27:20.283Z,84.90
2017-12-13T09:29:48.407Z,84.70
2017-12-13T09:32:16.568Z,85.20
2017-12-13T09:34:44.724Z,84.20
2017-12-13T09:37:12.880Z,85.30
2017-12-13T09:39:41.023Z,84.10
2017-12-13T09:42:09.162Z,85.30
2017-12-13T09:44:38.073Z,81.80
2017-12-13T09:47:07.213Z,79.70
2017-12-13T09:49:35.347Z,79.70
2017-12-13T09:52:03.524Z,78.60
2017-12-13T09:54:31.649Z,78.90
2017-12-13T09:56:59.796Z,80.00
2017-12-13T09:59:28.609Z,80.50
2017-12-13T10:01:56.739Z,80.40
2017-12-13T10:04:25.893Z,78.50
2017-12-13T10:06:55.411Z,79.30
2017-12-13T10:09:23.554Z,79.60
2017-12-13T10:11:52.281Z,78.50
2017-12-13T10:14:20.445Z,78.60
2017-12-13T10:16:48.580Z,78.60
2017-12-13T10:19:16.741Z,78.40
2017-12-13T10:21:44.856Z,76.60
2017-12-13T10:24:13.002Z,76.70
2017-12-13T10:26:41.155Z,77.50
2017-12-13T10:29:09.303Z,76.10
2017-12-13T10:31:37.886Z,74.00
2017-12-13T10:34:06.029Z,74.20
2017-12-13T10:36:35.007Z,73.50
2017-12-13T10:39:03.133Z,74.00
2017-12-13T10:41:32.979Z,68.00
2017-12-13T10:44:01.991Z,68.00
2017-12-13T10:46:30.157Z,66.00
2017-12-13T10:48:58.270Z,65.80
2017-12-13T10:51:27.478Z,65.90
2017-12-13T10:53:55.597Z,66.90
2017-12-13T10:56:23.736Z,66.10
2017-12-13T10:58:52.299Z,64.70
2017-12-13T11:01:21.164Z,64.00
2017-12-13T11:03:49.309Z,62.50
2017-12-13T11:06:18.112Z,63.80
2017-12-13T11:08:46.266Z,63.60
2017-12-13T11:11:15.970Z,62.70
2017-12-13T11:13:51.237Z,61.20
2017-12-13T11:16:20.797Z,61.80
2017-12-13T11:18:48.942Z,61.70
2017-12-13T11:21:18.799Z,61.10
2017-12-13T11:23:47.721Z,61.20
2017-12-13T11:26:16.610Z,61.40
2017-12-13T11:28:45.710Z,61.40
2017-12-13T11:31:13.862Z,60.80
2017-12-13T11:33:42.008Z,60.00
2017-12-13T11:36:10.133Z,60.20
2017-12-13T11:38:39.048Z,61.50
2017-12-13T11:41:07.970Z,59.80
2017-12-13T11:43:36.203Z,59.90
2017-12-13T11:46:05.791Z,58.90
2017-12-13T11:48:33.909Z,59.10
2017-12-13T11:51:02.081Z,58.40
2017-12-13T11:53:30.196Z,59.10
2017-12-13T11:55:58.334Z,59.90
2017-12-13T11:58:26.463Z,59.60
2017-12-13T12:00:54.616Z,60.70
2017-12-13T12:03:22.772Z,59.90
2017-12-13T12:05:52.246Z,59.20
2017-12-13T12:08:21.363Z,59.20
2017-12-13T12:10:49.513Z,58.70
2017-12-13T12:13:17.640Z,58.90
2017-12-13T12:15:46.536Z,58.40
2017-12-13T12:18:14.684Z,58.30
2017-12-13T12:20:42.819Z,57.70
2017-12-13T12:23:12.337Z,58.10
2017-12-13T12:25:40.486Z,58.10
2017-12-13T12:28:08.640Z,57.50
2017-12-13T12:30:36.764Z,57.80
2017-12-13T12:33:04.929Z,58.70
2017-12-13T12:35:33.475Z,58.90
2017-12-13T12:38:01.676Z,58.90
2017-12-13T12:40:29.820Z,57.90
2017-12-13T12:42:57.954Z,58.40
2017-12-13T12:45:26.097Z,57.00
2017-12-13T12:47:54.242Z,57.10
2017-12-13T12:50:22.390Z,57.20
2017-12-13T12:52:51.361Z,58.30
2017-12-13T12:55:19.485Z,57.80
2017-12-13T12:57:49.285Z,58.30
2017-12-13T13:00:17.417Z,58.20
2017-12-13T13:02:45.570Z,58.50
2017-12-13T13:05:13.743Z,58.60
2017-12-13T13:07:41.886Z,59.10
2017-12-13T13:10:10.060Z,58.10
2017-12-13T13:12:38.213Z,58.20
2017-12-13T13:15:06.361Z,58.20
2017-12-13T13:17:34.494Z,59.60
2017-12-13T13:20:02.649Z,58.90
2017-12-13T13:22:30.798Z,58.10
2017-12-13T13:24:58.944Z,58.20
2017-12-13T13:27:27.082Z,58.80
2017-12-13T13:29:55.242Z,58.60
2017-12-13T13:32:24.161Z,57.50
2017-12-13T13:34:52.323Z,57.60
2017-12-13T13:37:21.231Z,58.20
2017-12-13T13:39:50.185Z,58.50
2017-12-13T13:42:18.321Z,58.50
2017-12-13T13:44:46.437Z,60.70
2017-12-13T13:47:14.604Z,60.10
2017-12-13T13:49:43.517Z,64.00
2017-12-13T13:52:11.669Z,63.90
2017-12-13T13:54:39.812Z,64.80
2017-12-13T13:57:07.974Z,67.20
2017-12-13T13:59:36.848Z,70.30
2017-12-13T14:02:05.767Z,73.90
2017-12-13T14:04:34.654Z,75.00
2017-12-13T14:07:02.868Z,74.90
2017-12-13T14:09:32.309Z,78.50
2017-12-13T14:12:00.492Z,78.50
2017-12-13T14:14:28.618Z,79.80
2017-12-13T14:16:56.758Z,82.50
2017-12-13T14:19:26.222Z,86.40
2017-12-13T14:21:54.361Z,86.30
2017-12-13T14:24:22.499Z,87.90
2017-12-13T14:26:50.653Z,88.20
2017-12-13T14:29:18.797Z,90.00
2017-12-13T14:31:47.697Z,90.50
2017-12-13T14:34:16.878Z,90.50
2017-12-13T14:36:45.035Z,90.40
2017-12-13T14:39:13.195Z,90.40
2017-12-13T14:41:41.327Z,90.40
2017-12-13T14:44:09.474Z,90.50
2017-12-13T14:46:37.598Z,90.70
2017-12-13T14:49:05.749Z,90.80
2017-12-13T14:51:33.881Z,90.90
2017-12-13T14:54:02.041Z,91.10
2017-12-13T14:56:30.175Z,91.40
2017-12-13T14:58:59.094Z,91.30
2017-12-13T15:01:27.248Z,91.30
2017-12-13T15:03:55.391Z,91.30
2017-12-13T15:06:23.509Z,91.40
2017-12-13T15:08:51.652Z,91.40
2017-12-13T15:11:19.780Z,91.60
2017-12-13T15:13:48.859Z,91.80
2017-12-13T15:16:17.046Z,91.60
2017-12-13T15:18:45.170Z,92.00
2017-12-13T15:21:13.329Z,92.30
2017-12-13T15:23:41.482Z,92.50
2017-12-13T15:26:09.637Z,92.10
2017-12-13T15:28:38.533Z,92.20
2017-12-13T15:31:07.404Z,92.20
2017-12-13T15:33:35.537Z,92.50
2017-12-13T15:36:04.455Z,92.70
2017-12-13T15:38:32.643Z,92.70
2017-12-13T15:41:00.802Z,92.90
2017-12-13T15:43:28.921Z,92.90
2017-12-13T15:45:57.052Z,93.00
2017-12-13T15:48:25.935Z,92.90
2017-12-13T15:50:54.061Z,92.90
2017-12-13T15:53:23.541Z,92.90
2017-12-13T15:55:52.420Z,92.90
2017-12-13T15:58:20.577Z,92.80
2017-12-13T16:00:49.486Z,92.90
2017-12-13T16:03:18.378Z,93.10
2017-12-13T16:05:47.288Z,92.60
2017-12-13T16:08:16.235Z,92.60
2017-12-13T16:10:44.376Z,92.60
2017-12-13T16:13:12.526Z,92.50
2017-12-13T16:15:42.371Z,92.70
2017-12-13T16:18:10.517Z,92.70
2017-12-13T16:20:38.674Z,92.70
2017-12-13T16:23:06.800Z,92.60
2017-12-13T16:25:34.956Z,92.90
2017-12-13T16:28:03.111Z,92.90
2017-12-13T16:30:31.283Z,93.10
2017-12-13T16:32:59.412Z,93.00
2017-12-13T16:35:27.590Z,93.00
2017-12-13T16:37:56.469Z,93.00
2017-12-13T16:40:25.392Z,93.10
2017-12-13T16:42:54.368Z,93.10
2017-12-13T16:45:22.493Z,93.10
2017-12-13T16:47:50.661Z,93.10
2017-12-13T16:50:19.581Z,93.40
2017-12-13T16:52:49.251Z,93.30
2017-12-13T16:55:17.377Z,93.30
2017-12-13T16:57:46.286Z,93.10
2017-12-13T17:00:15.176Z,93.30
2017-12-13T17:02:44.154Z,93.40
2017-12-13T17:05:12.251Z,93.40
2017-12-13T17:07:41.151Z,93.50
2017-12-13T17:10:09.292Z,93.40
2017-12-13T17:12:38.218Z,93.70
2017-12-13T17:15:06.360Z,93.70
2017-12-13T17:17:35.290Z,93.60
2017-12-13T17:20:03.424Z,93.60
2017-12-13T17:22:31.593Z,93.80
2017-12-13T17:25:00.481Z,93.60
2017-12-13T17:27:28.624Z,93.60
2017-12-13T17:29:57.518Z,93.60
2017-12-13T17:32:26.461Z,93.80
2017-12-13T17:34:54.608Z,93.70
2017-12-13T17:37:23.510Z,93.80
2017-12-13T17:39:52.411Z,93.70
2017-12-13T17:42:20.563Z,93.60
2017-12-13T17:44:48.704Z,93.60
2017-12-13T17:47:17.634Z,93.70
2017-12-13T17:49:45.763Z,93.60
2017-12-13T17:52:13.909Z,93.70
2017-12-13T17:54:42.061Z,93.60
2017-12-13T17:57:10.993Z,93.50
2017-12-13T17:59:39.129Z,93.50
2017-12-13T18:02:07.246Z,93.30
2017-12-13T18:04:36.249Z,93.30
2017-12-13T18:07:05.178Z,93.50
2017-12-13T18:09:33.825Z,93.50
2017-12-13T18:12:01.980Z,93.50
2017-12-13T18:14:30.138Z,93.60
2017-12-13T18:16:59.031Z,93.80
2017-12-13T18:19:27.194Z,93.80
2017-12-13T18:21:56.896Z,93.60
2017-12-13T18:24:25.065Z,93.60
2017-12-13T18:26:53.207Z,93.50
2017-12-13T18:29:21.351Z,93.50
2017-12-13T18:31:49.524Z,93.40
2017-12-13T18:34:17.666Z,93.20
2017-12-13T18:36:45.879Z,93.00
2017-12-13T18:39:14.032Z,93.20
2017-12-13T18:41:42.224Z,93.10
2017-12-13T18:44:11.143Z,92.80
2017-12-13T18:46:39.306Z,92.80
2017-12-13T18:49:08.202Z,92.70
2017-12-13T18:51:36.363Z,92.70
2017-12-13T18:54:04.512Z,92.90
2017-12-13T18:56:32.660Z,92.40
2017-12-13T18:59:00.811Z,92.30
2017-12-13T19:01:28.970Z,92.20
2017-12-13T19:03:57.121Z,92.00
2017-12-13T19:06:26.963Z,92.10
2017-12-13T19:08:55.858Z,91.90
2017-12-13T19:11:24.799Z,91.50
2017-12-13T19:13:52.971Z,91.50
2017-12-13T19:16:21.102Z,91.40
2017-12-13T19:18:50.030Z,91.10
2017-12-13T19:21:18.945Z,91.20
2017-12-13T19:23:47.107Z,91.20
2017-12-13T19:26:15.279Z,91.00
2017-12-13T19:28:43.434Z,91.20
2017-12-13T19:31:11.579Z,91.10
2017-12-13T19:33:40.515Z,90.80
2017-12-13T19:36:08.647Z,90.80
2017-12-13T19:38:36.782Z,90.60
2017-12-13T19:41:05.516Z,90.60
2017-12-13T19:43:33.711Z,90.60
2017-12-13T19:46:01.880Z,90.20
2017-12-13T19:48:30.798Z,90.40
2017-12-13T19:50:59.909Z,90.30
2017-12-13T19:53:28.036Z,90.20
2017-12-13T19:55:56.999Z,90.40
2017-12-13T19:58:25.181Z,90.40
2017-12-13T20:00:53.354Z,90.50
2017-12-13T20:03:21.492Z,90.30
2017-12-13T20:05:49.711Z,90.40
2017-12-13T20:08:17.850Z,90.60
2017-12-13T20:10:46.538Z,90.60
2017-12-13T20:13:14.782Z,90.60
2017-12-13T20:15:42.947Z,90.80
2017-12-13T20:18:11.841Z,91.20
2017-12-13T20:20:41.526Z,91.10
2017-12-13T20:23:09.697Z,91.10
2017-12-13T20:25:37.843Z,91.50
2017-12-13T20:28:06.775Z,92.40
2017-12-13T20:30:34.909Z,92.10
2017-12-13T20:33:03.072Z,92.00
2017-12-13T20:35:31.203Z,92.40
2017-12-13T20:38:00.946Z,92.40
2017-12-13T20:40:29.114Z,92.40
2017-12-13T20:42:58.059Z,92.30
2017-12-13T20:45:26.204Z,92.30
2017-12-13T20:47:54.387Z,92.50
2017-12-13T20:50:23.314Z,92.60
2017-12-13T20:52:51.547Z,92.50
2017-12-13T20:55:19.708Z,92.50
2017-12-13T20:57:47.874Z,92.50
2017-12-13T21:00:16.032Z,92.40
2017-12-13T21:02:44.167Z,92.60
2017-12-13T21:05:12.772Z,92.80
2017-12-13T21:07:40.934Z,92.80
2017-12-13T21:10:09.112Z,93.00
2017-12-13T21:12:37.239Z,93.00
2017-12-13T21:15:06.198Z,93.30
2017-12-13T21:17:34.343Z,93.30
2017-12-13T21:20:03.276Z,94.00
2017-12-13T21:22:32.197Z,94.30
2017-12-13T21:25:00.346Z,94.30
2017-12-13T21:27:28.525Z,94.30
2017-12-13T21:29:56.668Z,94.40
2017-12-13T21:32:24.819Z,94.50
2017-12-13T21:34:53.738Z,94.80
2017-12-13T21:37:21.879Z,94.70
2017-12-13T21:39:51.203Z,95.00
2017-12-13T21:42:19.344Z,94.80
2017-12-13T21:44:48.479Z,95.40
2017-12-13T21:47:16.618Z,95.30
2017-12-13T21:49:44.793Z,95.10
2017-12-13T21:52:13.669Z,95.30
2017-12-13T21:54:41.825Z,95.50
2017-12-13T21:57:10.534Z,95.20
2017-12-13T21:59:39.644Z,95.20
2017-12-13T22:02:07.790Z,94.90
2017-12-13T22:04:35.928Z,94.90
2017-12-13T22:07:04.094Z,94.90
2017-12-13T22:09:32.241Z,95.00
2017-12-13T22:12:00.401Z,95.00
2017-12-13T22:14:28.636Z,95.10
2017-12-13T22:16:56.777Z,95.30
2017-12-13T22:19:24.916Z,95.30
2017-12-13T22:21:53.086Z,95.20
2017-12-13T22:24:21.240Z,95.20
2017-12-13T22:26:50.076Z,95.30
2017-12-13T22:29:18.215Z,95.20
2017-12-13T22:31:46.331Z,95.40
2017-12-13T22:34:15.272Z,95.20
2017-12-13T22:36:43.394Z,95.20
2017-12-13T22:39:11.557Z,95.60
2017-12-13T22:41:39.693Z,95.50
2017-12-13T22:44:08.633Z,95.60
2017-12-13T22:46:37.548Z,95.60
2017-12-13T22:49:05.692Z,95.50
2017-12-13T22:51:34.634Z,95.70
2017-12-13T22:54:02.741Z,95.60
2017-12-13T22:56:30.884Z,95.70
2017-12-13T22:58:59.203Z,95.60
2017-12-13T23:01:27.345Z,95.60
2017-12-13T23:03:55.487Z,95.70
2017-12-13T23:06:23.638Z,95.60
2017-12-13T23:08:51.772Z,95.50
2017-12-13T23:11:20.789Z,95.50
2017-12-13T23:13:49.701Z,96.00
2017-12-13T23:16:18.605Z,95.80
2017-12-13T23:18:47.513Z,95.80
2017-12-13T23:21:15.681Z,95.80
2017-12-13T23:23:43.823Z,95.90
2017-12-13T23:26:11.959Z,95.60
2017-12-13T23:28:40.877Z,96.00
2017-12-13T23:31:09.016Z,95.90
2017-12-13T23:33:37.179Z,96.10
2017-12-13T23:36:05.290Z,96.00
2017-12-13T23:38:34.218Z,95.90
2017-12-13T23:41:02.360Z,95.90
2017-12-13T23:43:30.935Z,96.10
2017-12-13T23:45:59.057Z,96.30
2017-12-13T23:48:27.203Z,96.30
2017-12-13T23:50:55.330Z,96.40
2017-12-13T23:53:23.492Z,96.60
2017-12-13T23:55:51.660Z,96.70
2017-12-13T23:58:19.795Z,96.70
